sensor_id;sensor_type;location;lat;lon;timestamp;pressure;altitude;pressure_sealevel;temperature;humidity
56681;BME280;42558;52.388;13.390;2023-05-18T00:00:58;102201.59;;;6.83;77.06
56681;BME280;42558;52.388;13.390;2023-05-18T00:03:26;102199.23;;;6.88;75.89
56681;BME280;42558;52.388;13.390;2023-05-18T00:05:54;102199.38;;;6.91;75.87
56681;BME280;42558;52.388;13.390;2023-05-18T00:08:37;102198.81;;;7.04;74.98
56681;BME280;42558;52.388;13.390;2023-05-18T00:11:07;102203.56;;;7.11;74.37
56681;BME280;42558;52.388;13.390;2023-05-18T00:13:37;102202.95;;;7.23;73.67
56681;BME280;42558;52.388;13.390;2023-05-18T00:16:07;102208.55;;;7.33;72.77
56681;BME280;42558;52.388;13.390;2023-05-18T00:18:35;102209.57;;;7.29;72.70
56681;BME280;42558;52.388;13.390;2023-05-18T00:21:03;102207.17;;;7.27;72.55
56681;BME280;42558;52.388;13.390;2023-05-18T00:23:32;102207.15;;;7.23;72.93
56681;BME280;42558;52.388;13.390;2023-05-18T00:26:02;102208.63;;;7.15;73.76
56681;BME280;42558;52.388;13.390;2023-05-18T00:28:30;102210.77;;;7.08;73.57
56681;BME280;42558;52.388;13.390;2023-05-18T00:31:00;102208.46;;;6.97;74.57
56681;BME280;42558;52.388;13.390;2023-05-18T00:33:28;102211.65;;;6.92;74.93
56681;BME280;42558;52.388;13.390;2023-05-18T00:35:58;102211.08;;;6.91;75.43
56681;BME280;42558;52.388;13.390;2023-05-18T00:38:28;102213.27;;;6.89;75.28
56681;BME280;42558;52.388;13.390;2023-05-18T00:40:58;102214.91;;;6.94;75.15
56681;BME280;42558;52.388;13.390;2023-05-18T00:43:28;102214.56;;;6.94;75.36
56681;BME280;42558;52.388;13.390;2023-05-18T00:45:58;102216.46;;;6.94;75.32
56681;BME280;42558;52.388;13.390;2023-05-18T00:48:28;102219.77;;;6.90;75.53
56681;BME280;42558;52.388;13.390;2023-05-18T00:50:58;102223.58;;;6.86;75.60
56681;BME280;42558;52.388;13.390;2023-05-18T00:53:28;102226.48;;;6.91;75.26
56681;BME280;42558;52.388;13.390;2023-05-18T00:55:58;102226.90;;;6.92;75.21
56681;BME280;42558;52.388;13.390;2023-05-18T00:58:29;102228.02;;;6.94;75.42
56681;BME280;42558;52.388;13.390;2023-05-18T01:01:00;102231.95;;;6.89;76.01
56681;BME280;42558;52.388;13.390;2023-05-18T01:03:35;102231.38;;;6.88;75.98
56681;BME280;42558;52.388;13.390;2023-05-18T01:06:09;102232.05;;;6.87;76.07
56681;BME280;42558;52.388;13.390;2023-05-18T01:08:37;102234.92;;;6.86;76.51
56681;BME280;42558;52.388;13.390;2023-05-18T01:11:20;102240.61;;;6.83;76.55
56681;BME280;42558;52.388;13.390;2023-05-18T01:14:05;102240.06;;;6.90;76.56
56681;BME280;42558;52.388;13.390;2023-05-18T01:16:47;102246.42;;;6.91;76.44
56681;BME280;42558;52.388;13.390;2023-05-18T01:25:20;102248.48;;;6.88;77.25
56681;BME280;42558;52.388;13.390;2023-05-18T01:28:02;102252.81;;;6.87;77.38
56681;BME280;42558;52.388;13.390;2023-05-18T01:30:40;102255.88;;;6.81;77.78
56681;BME280;42558;52.388;13.390;2023-05-18T01:33:12;102254.63;;;6.84;78.09
56681;BME280;42558;52.388;13.390;2023-05-18T01:35:43;102250.58;;;6.83;78.01
56681;BME280;42558;52.388;13.390;2023-05-18T01:38:21;102254.21;;;6.79;78.56
56681;BME280;42558;52.388;13.390;2023-05-18T01:41:19;102253.79;;;6.85;78.35
56681;BME280;42558;52.388;13.390;2023-05-18T01:47:15;102251.76;;;6.83;78.93
56681;BME280;42558;52.388;13.390;2023-05-18T01:49:55;102257.61;;;6.78;79.22
56681;BME280;42558;52.388;13.390;2023-05-18T01:52:50;102259.74;;;6.85;78.95
56681;BME280;42558;52.388;13.390;2023-05-18T01:55:23;102261.32;;;6.92;78.78
56681;BME280;42558;52.388;13.390;2023-05-18T01:57:57;102262.23;;;6.96;78.73
56681;BME280;42558;52.388;13.390;2023-05-18T02:00:29;102261.74;;;6.96;79.12
56681;BME280;42558;52.388;13.390;2023-05-18T02:02:59;102265.11;;;6.97;79.12
56681;BME280;42558;52.388;13.390;2023-05-18T02:05:29;102265.06;;;6.96;79.25
56681;BME280;42558;52.388;13.390;2023-05-18T02:08:00;102266.68;;;7.01;79.58
56681;BME280;42558;52.388;13.390;2023-05-18T02:10:30;102264.77;;;7.04;79.37
56681;BME280;42558;52.388;13.390;2023-05-18T02:13:00;102267.35;;;7.07;79.13
56681;BME280;42558;52.388;13.390;2023-05-18T02:15:30;102262.41;;;7.09;79.38
56681;BME280;42558;52.388;13.390;2023-05-18T02:18:00;102259.85;;;7.07;79.76
56681;BME280;42558;52.388;13.390;2023-05-18T02:20:31;102263.25;;;7.02;80.15
56681;BME280;42558;52.388;13.390;2023-05-18T02:23:02;102255.91;;;6.99;80.15
56681;BME280;42558;52.388;13.390;2023-05-18T02:25:32;102257.56;;;6.94;80.37
56681;BME280;42558;52.388;13.390;2023-05-18T02:28:02;102258.28;;;6.90;80.68
56681;BME280;42558;52.388;13.390;2023-05-18T02:30:32;102262.98;;;6.90;80.82
56681;BME280;42558;52.388;13.390;2023-05-18T02:33:03;102268.02;;;6.82;81.15
56681;BME280;42558;52.388;13.390;2023-05-18T02:35:34;102268.45;;;6.81;81.51
56681;BME280;42558;52.388;13.390;2023-05-18T02:38:01;102270.79;;;6.82;81.32
56681;BME280;42558;52.388;13.390;2023-05-18T02:40:30;102272.63;;;6.74;81.67
56681;BME280;42558;52.388;13.390;2023-05-18T02:42:59;102274.43;;;6.65;82.25
56681;BME280;42558;52.388;13.390;2023-05-18T02:45:27;102272.09;;;6.61;82.33
56681;BME280;42558;52.388;13.390;2023-05-18T02:47:55;102272.08;;;6.58;82.82
56681;BME280;42558;52.388;13.390;2023-05-18T02:50:24;102274.69;;;6.54;83.20
56681;BME280;42558;52.388;13.390;2023-05-18T02:52:52;102277.33;;;6.51;83.16
56681;BME280;42558;52.388;13.390;2023-05-18T02:55:21;102274.52;;;6.45;83.40
56681;BME280;42558;52.388;13.390;2023-05-18T02:57:49;102278.30;;;6.43;83.61
56681;BME280;42558;52.388;13.390;2023-05-18T03:00:25;102277.02;;;6.36;83.93
56681;BME280;42558;52.388;13.390;2023-05-18T03:02:58;102278.31;;;6.31;84.01
56681;BME280;42558;52.388;13.390;2023-05-18T03:05:29;102278.45;;;6.27;84.55
56681;BME280;42558;52.388;13.390;2023-05-18T03:07:59;102280.18;;;6.30;84.60
56681;BME280;42558;52.388;13.390;2023-05-18T03:10:30;102281.02;;;6.26;84.20
56681;BME280;42558;52.388;13.390;2023-05-18T03:13:01;102280.45;;;6.22;84.56
56681;BME280;42558;52.388;13.390;2023-05-18T03:15:31;102282.88;;;6.22;84.88
56681;BME280;42558;52.388;13.390;2023-05-18T03:18:01;102283.43;;;6.19;84.58
56681;BME280;42558;52.388;13.390;2023-05-18T03:20:31;102282.83;;;6.18;84.93
56681;BME280;42558;52.388;13.390;2023-05-18T03:23:00;102285.19;;;6.19;85.10
56681;BME280;42558;52.388;13.390;2023-05-18T03:25:30;102280.98;;;6.25;84.94
56681;BME280;42558;52.388;13.390;2023-05-18T03:28:03;102281.42;;;6.27;84.73
56681;BME280;42558;52.388;13.390;2023-05-18T03:30:33;102286.95;;;6.26;84.86
56681;BME280;42558;52.388;13.390;2023-05-18T03:33:02;102285.00;;;6.25;84.90
56681;BME280;42558;52.388;13.390;2023-05-18T03:35:30;102289.84;;;6.24;85.08
56681;BME280;42558;52.388;13.390;2023-05-18T03:38:00;102290.98;;;6.26;84.96
56681;BME280;42558;52.388;13.390;2023-05-18T03:40:30;102289.53;;;6.25;84.87
56681;BME280;42558;52.388;13.390;2023-05-18T03:42:59;102292.63;;;6.24;84.96
56681;BME280;42558;52.388;13.390;2023-05-18T03:45:29;102292.20;;;6.20;85.15
56681;BME280;42558;52.388;13.390;2023-05-18T03:47:57;102292.98;;;6.15;85.69
56681;BME280;42558;52.388;13.390;2023-05-18T03:50:28;102294.66;;;6.14;86.20
56681;BME280;42558;52.388;13.390;2023-05-18T03:52:56;102298.70;;;6.12;86.40
56681;BME280;42558;52.388;13.390;2023-05-18T03:55:26;102300.38;;;6.10;86.85
56681;BME280;42558;52.388;13.390;2023-05-18T03:57:56;102303.85;;;6.10;87.36
56681;BME280;42558;52.388;13.390;2023-05-18T04:00:27;102305.77;;;6.13;87.68
56681;BME280;42558;52.388;13.390;2023-05-18T04:02:56;102305.61;;;6.10;88.13
56681;BME280;42558;52.388;13.390;2023-05-18T04:05:24;102308.08;;;6.10;88.60
56681;BME280;42558;52.388;13.390;2023-05-18T04:07:53;102312.66;;;6.11;89.05
56681;BME280;42558;52.388;13.390;2023-05-18T04:10:25;102312.64;;;6.11;89.68
56681;BME280;42558;52.388;13.390;2023-05-18T04:12:53;102320.35;;;6.14;89.83
56681;BME280;42558;52.388;13.390;2023-05-18T04:15:24;102322.80;;;6.21;90.19
56681;BME280;42558;52.388;13.390;2023-05-18T04:17:52;102322.98;;;6.27;90.23
56681;BME280;42558;52.388;13.390;2023-05-18T04:20:22;102326.56;;;6.38;90.24
56681;BME280;42558;52.388;13.390;2023-05-18T04:22:51;102328.77;;;6.49;90.34
56681;BME280;42558;52.388;13.390;2023-05-18T04:25:21;102328.45;;;6.62;89.94
56681;BME280;42558;52.388;13.390;2023-05-18T04:27:49;102332.56;;;6.84;89.14
56681;BME280;42558;52.388;13.390;2023-05-18T04:30:20;102329.54;;;7.05;88.36
56681;BME280;42558;52.388;13.390;2023-05-18T04:32:51;102328.95;;;7.24;86.53
56681;BME280;42558;52.388;13.390;2023-05-18T04:35:23;102324.36;;;7.37;85.71
56681;BME280;42558;52.388;13.390;2023-05-18T04:37:54;102322.57;;;7.40;84.13
56681;BME280;42558;52.388;13.390;2023-05-18T04:40:23;102327.41;;;7.42;84.14
56681;BME280;42558;52.388;13.390;2023-05-18T04:42:52;102329.11;;;7.48;83.48
56681;BME280;42558;52.388;13.390;2023-05-18T04:45:22;102325.60;;;7.48;82.92
56681;BME280;42558;52.388;13.390;2023-05-18T04:47:53;102329.55;;;7.56;82.88
56681;BME280;42558;52.388;13.390;2023-05-18T04:50:22;102328.23;;;7.65;82.52
56681;BME280;42558;52.388;13.390;2023-05-18T04:52:51;102332.23;;;7.71;81.96
56681;BME280;42558;52.388;13.390;2023-05-18T04:55:22;102333.30;;;7.82;81.86
56681;BME280;42558;52.388;13.390;2023-05-18T04:57:56;102336.90;;;7.90;81.18
56681;BME280;42558;52.388;13.390;2023-05-18T05:00:27;102339.45;;;7.96;80.77
56681;BME280;42558;52.388;13.390;2023-05-18T05:02:58;102337.09;;;8.09;80.53
56681;BME280;42558;52.388;13.390;2023-05-18T05:05:26;102334.66;;;8.09;80.02
56681;BME280;42558;52.388;13.390;2023-05-18T05:07:55;102335.64;;;8.04;79.71
56681;BME280;42558;52.388;13.390;2023-05-18T05:10:23;102332.52;;;8.16;79.36
56681;BME280;42558;52.388;13.390;2023-05-18T05:12:51;102334.14;;;8.24;78.85
56681;BME280;42558;52.388;13.390;2023-05-18T05:15:20;102336.30;;;8.35;78.37
56681;BME280;42558;52.388;13.390;2023-05-18T05:17:50;102339.10;;;8.50;78.12
56681;BME280;42558;52.388;13.390;2023-05-18T05:20:20;102336.38;;;8.63;77.58
56681;BME280;42558;52.388;13.390;2023-05-18T05:22:50;102337.84;;;8.68;76.50
56681;BME280;42558;52.388;13.390;2023-05-18T05:25:20;102341.11;;;8.70;76.00
56681;BME280;42558;52.388;13.390;2023-05-18T05:27:50;102344.17;;;8.79;75.51
56681;BME280;42558;52.388;13.390;2023-05-18T05:30:20;102344.63;;;8.82;75.00
56681;BME280;42558;52.388;13.390;2023-05-18T05:32:50;102348.70;;;8.98;74.96
56681;BME280;42558;52.388;13.390;2023-05-18T05:35:20;102348.02;;;9.02;73.72
56681;BME280;42558;52.388;13.390;2023-05-18T05:37:50;102342.64;;;9.08;73.85
56681;BME280;42558;52.388;13.390;2023-05-18T05:40:20;102347.88;;;9.22;73.75
56681;BME280;42558;52.388;13.390;2023-05-18T05:42:50;102349.77;;;9.33;73.01
56681;BME280;42558;52.388;13.390;2023-05-18T05:45:20;102355.27;;;9.51;72.50
56681;BME280;42558;52.388;13.390;2023-05-18T05:47:50;102357.36;;;9.63;71.49
56681;BME280;42558;52.388;13.390;2023-05-18T05:50:20;102357.88;;;9.58;72.04
56681;BME280;42558;52.388;13.390;2023-05-18T05:52:50;102358.98;;;9.71;71.68
56681;BME280;42558;52.388;13.390;2023-05-18T05:55:20;102358.25;;;10.08;70.67
56681;BME280;42558;52.388;13.390;2023-05-18T05:57:51;102356.98;;;10.16;70.77
56681;BME280;42558;52.388;13.390;2023-05-18T06:00:21;102357.92;;;10.34;69.70
56681;BME280;42558;52.388;13.390;2023-05-18T06:02:52;102358.23;;;10.55;68.71
56681;BME280;42558;52.388;13.390;2023-05-18T06:05:22;102360.73;;;10.78;68.45
56681;BME280;42558;52.388;13.390;2023-05-18T06:07:52;102356.19;;;10.98;66.68
56681;BME280;42558;52.388;13.390;2023-05-18T06:10:22;102355.46;;;11.02;66.43
56681;BME280;42558;52.388;13.390;2023-05-18T06:12:52;102356.33;;;11.15;66.00
56681;BME280;42558;52.388;13.390;2023-05-18T06:15:22;102350.55;;;11.36;65.73
56681;BME280;42558;52.388;13.390;2023-05-18T06:17:52;102349.71;;;11.82;64.90
56681;BME280;42558;52.388;13.390;2023-05-18T06:20:22;102347.20;;;11.96;63.86
56681;BME280;42558;52.388;13.390;2023-05-18T06:22:52;102346.20;;;11.87;63.35
56681;BME280;42558;52.388;13.390;2023-05-18T06:25:22;102349.44;;;11.54;64.06
56681;BME280;42558;52.388;13.390;2023-05-18T06:27:52;102346.07;;;11.84;63.73
56681;BME280;42558;52.388;13.390;2023-05-18T06:30:22;102349.14;;;11.71;63.80
56681;BME280;42558;52.388;13.390;2023-05-18T06:32:52;102348.76;;;12.11;63.05
56681;BME280;42558;52.388;13.390;2023-05-18T06:35:22;102345.95;;;12.50;60.43
56681;BME280;42558;52.388;13.390;2023-05-18T06:37:52;102348.75;;;12.72;60.09
56681;BME280;42558;52.388;13.390;2023-05-18T06:40:22;102349.27;;;12.66;59.77
56681;BME280;42558;52.388;13.390;2023-05-18T06:42:52;102346.87;;;12.24;59.85
56681;BME280;42558;52.388;13.390;2023-05-18T06:45:22;102348.17;;;12.26;60.61
56681;BME280;42558;52.388;13.390;2023-05-18T06:47:50;102345.91;;;12.55;59.29
56681;BME280;42558;52.388;13.390;2023-05-18T06:50:19;102344.38;;;13.09;58.65
56681;BME280;42558;52.388;13.390;2023-05-18T06:52:47;102339.05;;;13.52;56.96
56681;BME280;42558;52.388;13.390;2023-05-18T06:55:16;102338.84;;;13.63;54.54
56681;BME280;42558;52.388;13.390;2023-05-18T06:57:44;102342.00;;;13.63;55.26
56681;BME280;42558;52.388;13.390;2023-05-18T07:00:14;102341.91;;;13.87;54.57
56681;BME280;42558;52.388;13.390;2023-05-18T07:02:41;102337.42;;;13.37;55.84
56681;BME280;42558;52.388;13.390;2023-05-18T07:05:10;102337.90;;;13.82;55.12
56681;BME280;42558;52.388;13.390;2023-05-18T07:07:38;102337.23;;;13.56;54.15
56681;BME280;42558;52.388;13.390;2023-05-18T07:10:07;102334.88;;;13.48;54.42
56681;BME280;42558;52.388;13.390;2023-05-18T07:12:35;102335.85;;;13.78;54.26
56681;BME280;42558;52.388;13.390;2023-05-18T07:15:04;102341.66;;;13.98;53.63
56681;BME280;42558;52.388;13.390;2023-05-18T07:17:32;102335.88;;;13.72;52.44
56681;BME280;42558;52.388;13.390;2023-05-18T07:20:00;102337.05;;;13.90;53.93
56681;BME280;42558;52.388;13.390;2023-05-18T07:22:29;102333.91;;;14.50;52.69
56681;BME280;42558;52.388;13.390;2023-05-18T07:24:57;102336.33;;;14.79;51.95
56681;BME280;42558;52.388;13.390;2023-05-18T07:27:29;102333.05;;;14.59;52.21
56681;BME280;42558;52.388;13.390;2023-05-18T07:29:57;102331.54;;;13.23;53.10
56681;BME280;42558;52.388;13.390;2023-05-18T07:32:26;102333.29;;;13.10;53.82
56681;BME280;42558;52.388;13.390;2023-05-18T07:34:54;102334.01;;;13.96;52.71
56681;BME280;42558;52.388;13.390;2023-05-18T07:37:23;102333.75;;;14.21;50.93
56681;BME280;42558;52.388;13.390;2023-05-18T07:39:51;102328.45;;;14.75;50.97
56681;BME280;42558;52.388;13.390;2023-05-18T07:42:20;102329.62;;;14.13;50.03
56681;BME280;42558;52.388;13.390;2023-05-18T07:44:48;102332.21;;;13.22;53.94
56681;BME280;42558;52.388;13.390;2023-05-18T07:47:17;102334.25;;;13.85;54.21
56681;BME280;42558;52.388;13.390;2023-05-18T07:49:49;102330.83;;;14.62;51.82
56681;BME280;42558;52.388;13.390;2023-05-18T07:52:19;102325.14;;;14.46;49.03
56681;BME280;42558;52.388;13.390;2023-05-18T07:54:49;102324.17;;;14.74;49.50
56681;BME280;42558;52.388;13.390;2023-05-18T07:57:19;102323.58;;;14.87;48.67
56681;BME280;42558;52.388;13.390;2023-05-18T07:59:50;102325.48;;;14.46;48.10
56681;BME280;42558;52.388;13.390;2023-05-18T08:02:19;102327.69;;;13.99;47.56
56681;BME280;42558;52.388;13.390;2023-05-18T08:04:49;102338.10;;;13.63;51.78
56681;BME280;42558;52.388;13.390;2023-05-18T08:07:20;102336.31;;;14.32;48.16
56681;BME280;42558;52.388;13.390;2023-05-18T08:09:50;102338.17;;;14.07;47.86
56681;BME280;42558;52.388;13.390;2023-05-18T08:12:21;102341.04;;;13.34;48.55
56681;BME280;42558;52.388;13.390;2023-05-18T08:14:51;102340.90;;;12.99;50.23
56681;BME280;42558;52.388;13.390;2023-05-18T08:17:21;102342.71;;;12.95;50.90
56681;BME280;42558;52.388;13.390;2023-05-18T08:19:51;102342.45;;;13.10;51.52
56681;BME280;42558;52.388;13.390;2023-05-18T08:22:22;102343.42;;;13.24;51.13
56681;BME280;42558;52.388;13.390;2023-05-18T08:24:52;102340.63;;;13.08;50.29
56681;BME280;42558;52.388;13.390;2023-05-18T08:27:23;102341.45;;;13.70;50.26
56681;BME280;42558;52.388;13.390;2023-05-18T08:29:52;102336.25;;;14.75;48.22
56681;BME280;42558;52.388;13.390;2023-05-18T08:32:22;102337.23;;;14.79;46.94
56681;BME280;42558;52.388;13.390;2023-05-18T08:34:52;102336.86;;;14.79;46.78
56681;BME280;42558;52.388;13.390;2023-05-18T08:37:23;102334.16;;;14.93;46.31
56681;BME280;42558;52.388;13.390;2023-05-18T08:39:58;102328.48;;;15.28;45.10
56681;BME280;42558;52.388;13.390;2023-05-18T08:45:21;102324.77;;;15.85;46.56
56681;BME280;42558;52.388;13.390;2023-05-18T08:47:49;102324.42;;;15.38;45.89
56681;BME280;42558;52.388;13.390;2023-05-18T08:50:20;102322.77;;;15.54;45.46
56681;BME280;42558;52.388;13.390;2023-05-18T08:52:54;102323.13;;;15.43;45.72
56681;BME280;42558;52.388;13.390;2023-05-18T08:55:28;102324.77;;;15.75;45.19
56681;BME280;42558;52.388;13.390;2023-05-18T08:57:58;102324.94;;;15.64;44.82
56681;BME280;42558;52.388;13.390;2023-05-18T09:00:28;102328.11;;;16.05;43.98
56681;BME280;42558;52.388;13.390;2023-05-18T09:03:01;102325.66;;;15.37;44.31
56681;BME280;42558;52.388;13.390;2023-05-18T09:05:29;102327.09;;;15.48;44.66
56681;BME280;42558;52.388;13.390;2023-05-18T09:08:00;102335.65;;;14.65;46.43
56681;BME280;42558;52.388;13.390;2023-05-18T09:10:32;102335.14;;;15.23;46.25
56681;BME280;42558;52.388;13.390;2023-05-18T09:13:03;102335.51;;;14.66;46.03
56681;BME280;42558;52.388;13.390;2023-05-18T09:15:33;102331.52;;;15.48;45.29
56681;BME280;42558;52.388;13.390;2023-05-18T09:18:03;102325.86;;;15.88;43.05
56681;BME280;42558;52.388;13.390;2023-05-18T09:20:33;102321.65;;;15.23;44.03
56681;BME280;42558;52.388;13.390;2023-05-18T09:23:04;102323.48;;;15.08;45.92
56681;BME280;42558;52.388;13.390;2023-05-18T09:25:44;102325.17;;;14.48;45.60
56681;BME280;42558;52.388;13.390;2023-05-18T09:28:39;102323.70;;;14.52;46.32
56681;BME280;42558;52.388;13.390;2023-05-18T09:31:16;102324.39;;;14.75;46.51
56681;BME280;42558;52.388;13.390;2023-05-18T09:33:47;102314.22;;;15.33;45.33
56681;BME280;42558;52.388;13.390;2023-05-18T09:36:24;102314.52;;;15.48;45.26
56681;BME280;42558;52.388;13.390;2023-05-18T09:38:54;102304.97;;;15.59;44.29
56681;BME280;42558;52.388;13.390;2023-05-18T09:41:26;102311.75;;;14.88;45.76
56681;BME280;42558;52.388;13.390;2023-05-18T09:43:54;102319.73;;;14.64;46.48
56681;BME280;42558;52.388;13.390;2023-05-18T09:46:23;102319.75;;;14.13;47.74
56681;BME280;42558;52.388;13.390;2023-05-18T09:48:53;102314.80;;;13.91;47.75
56681;BME280;42558;52.388;13.390;2023-05-18T09:51:22;102322.27;;;13.93;48.40
56681;BME280;42558;52.388;13.390;2023-05-18T09:53:55;102323.18;;;13.87;47.05
56681;BME280;42558;52.388;13.390;2023-05-18T09:56:26;102315.50;;;13.84;47.68
56681;BME280;42558;52.388;13.390;2023-05-18T09:59:07;102313.53;;;14.12;47.90
56681;BME280;42558;52.388;13.390;2023-05-18T10:01:59;102315.08;;;14.17;46.63
56681;BME280;42558;52.388;13.390;2023-05-18T10:04:42;102314.73;;;14.03;45.90
56681;BME280;42558;52.388;13.390;2023-05-18T10:07:15;102305.59;;;14.82;45.18
56681;BME280;42558;52.388;13.390;2023-05-18T10:09:45;102300.82;;;15.27;42.95
56681;BME280;42558;52.388;13.390;2023-05-18T10:12:17;102294.71;;;15.60;43.07
56681;BME280;42558;52.388;13.390;2023-05-18T10:14:49;102290.91;;;15.56;43.50
56681;BME280;42558;52.388;13.390;2023-05-18T10:17:21;102290.68;;;15.25;43.46
56681;BME280;42558;52.388;13.390;2023-05-18T10:19:56;102287.33;;;15.17;44.48
56681;BME280;42558;52.388;13.390;2023-05-18T10:22:26;102290.37;;;15.09;44.63
56681;BME280;42558;52.388;13.390;2023-05-18T10:24:59;102291.45;;;14.67;45.47
56681;BME280;42558;52.388;13.390;2023-05-18T10:27:34;102288.83;;;14.45;46.10
56681;BME280;42558;52.388;13.390;2023-05-18T10:30:08;102282.29;;;14.52;46.70
56681;BME280;42558;52.388;13.390;2023-05-18T10:32:39;102276.34;;;15.08;46.33
56681;BME280;42558;52.388;13.390;2023-05-18T10:35:11;102286.14;;;14.50;45.96
56681;BME280;42558;52.388;13.390;2023-05-18T10:37:45;102278.27;;;14.63;45.70
56681;BME280;42558;52.388;13.390;2023-05-18T10:40:18;102279.34;;;14.63;45.44
56681;BME280;42558;52.388;13.390;2023-05-18T10:42:51;102272.02;;;15.04;45.01
56681;BME280;42558;52.388;13.390;2023-05-18T10:45:23;102271.77;;;14.74;44.70
56681;BME280;42558;52.388;13.390;2023-05-18T10:47:56;102275.93;;;14.38;45.50
56681;BME280;42558;52.388;13.390;2023-05-18T10:50:30;102276.84;;;14.23;45.52
56681;BME280;42558;52.388;13.390;2023-05-18T10:53:02;102281.23;;;14.30;46.05
56681;BME280;42558;52.388;13.390;2023-05-18T10:55:34;102273.02;;;14.66;45.49
56681;BME280;42558;52.388;13.390;2023-05-18T10:58:10;102267.47;;;14.89;46.31
56681;BME280;42558;52.388;13.390;2023-05-18T11:00:48;102261.48;;;15.56;43.56
56681;BME280;42558;52.388;13.390;2023-05-18T11:03:20;102259.40;;;15.59;43.15
56681;BME280;42558;52.388;13.390;2023-05-18T11:08:44;102267.96;;;14.95;45.26
56681;BME280;42558;52.388;13.390;2023-05-18T11:11:16;102269.58;;;15.14;45.12
56681;BME280;42558;52.388;13.390;2023-05-18T11:13:49;102271.73;;;14.88;44.69
56681;BME280;42558;52.388;13.390;2023-05-18T11:16:32;102272.34;;;15.39;44.51
56681;BME280;42558;52.388;13.390;2023-05-18T11:19:08;102265.31;;;15.05;42.99
56681;BME280;42558;52.388;13.390;2023-05-18T11:29:38;102249.60;;;16.23;40.83
56681;BME280;42558;52.388;13.390;2023-05-18T11:32:29;102255.95;;;14.63;43.13
56681;BME280;42558;52.388;13.390;2023-05-18T11:35:02;102256.25;;;14.60;44.90
56681;BME280;42558;52.388;13.390;2023-05-18T11:40:46;102247.58;;;15.43;42.99
56681;BME280;42558;52.388;13.390;2023-05-18T11:43:23;102246.90;;;15.76;44.52
56681;BME280;42558;52.388;13.390;2023-05-18T11:45:57;102238.65;;;16.01;42.31
56681;BME280;42558;52.388;13.390;2023-05-18T11:48:31;102238.50;;;16.28;43.04
56681;BME280;42558;52.388;13.390;2023-05-18T11:51:02;102239.94;;;16.31;42.82
56681;BME280;42558;52.388;13.390;2023-05-18T11:53:36;102247.45;;;15.85;43.62
56681;BME280;42558;52.388;13.390;2023-05-18T11:56:10;102248.87;;;15.97;43.37
56681;BME280;42558;52.388;13.390;2023-05-18T11:58:41;102242.70;;;15.89;43.53
56681;BME280;42558;52.388;13.390;2023-05-18T12:01:12;102245.40;;;15.80;42.95
56681;BME280;42558;52.388;13.390;2023-05-18T12:03:43;102247.15;;;15.67;42.83
56681;BME280;42558;52.388;13.390;2023-05-18T12:06:43;102243.58;;;15.47;41.42
56681;BME280;42558;52.388;13.390;2023-05-18T12:09:14;102246.27;;;15.28;43.29
56681;BME280;42558;52.388;13.390;2023-05-18T12:11:41;102244.19;;;15.40;43.00
56681;BME280;42558;52.388;13.390;2023-05-18T12:14:11;102242.98;;;15.43;41.24
56681;BME280;42558;52.388;13.390;2023-05-18T12:16:42;102237.21;;;15.57;40.44
56681;BME280;42558;52.388;13.390;2023-05-18T12:19:13;102234.37;;;15.89;40.55
56681;BME280;42558;52.388;13.390;2023-05-18T12:21:44;102230.48;;;16.14;40.32
56681;BME280;42558;52.388;13.390;2023-05-18T12:24:15;102220.16;;;16.12;39.81
56681;BME280;42558;52.388;13.390;2023-05-18T12:26:44;102225.02;;;16.30;41.18
56681;BME280;42558;52.388;13.390;2023-05-18T12:29:13;102220.77;;;16.29;40.40
56681;BME280;42558;52.388;13.390;2023-05-18T12:31:48;102220.51;;;16.37;40.79
56681;BME280;42558;52.388;13.390;2023-05-18T12:34:18;102221.42;;;16.52;41.53
56681;BME280;42558;52.388;13.390;2023-05-18T12:36:52;102222.24;;;16.21;41.71
56681;BME280;42558;52.388;13.390;2023-05-18T12:39:24;102225.79;;;15.85;42.67
56681;BME280;42558;52.388;13.390;2023-05-18T12:42:13;102223.61;;;15.71;42.33
56681;BME280;42558;52.388;13.390;2023-05-18T12:44:47;102225.55;;;15.60;43.34
56681;BME280;42558;52.388;13.390;2023-05-18T12:47:19;102227.30;;;15.47;43.48
56681;BME280;42558;52.388;13.390;2023-05-18T12:49:49;102221.46;;;15.59;42.63
56681;BME280;42558;52.388;13.390;2023-05-18T12:52:20;102218.36;;;15.74;42.69
56681;BME280;42558;52.388;13.390;2023-05-18T12:54:55;102215.38;;;16.11;41.14
56681;BME280;42558;52.388;13.390;2023-05-18T12:57:29;102221.27;;;15.91;41.84
56681;BME280;42558;52.388;13.390;2023-05-18T13:00:00;102223.77;;;15.39;42.64
56681;BME280;42558;52.388;13.390;2023-05-18T13:02:36;102219.69;;;15.10;42.63
56681;BME280;42558;52.388;13.390;2023-05-18T13:05:10;102215.36;;;14.68;42.71
56681;BME280;42558;52.388;13.390;2023-05-18T13:07:43;102214.30;;;15.25;43.61
56681;BME280;42558;52.388;13.390;2023-05-18T13:10:18;102215.91;;;15.56;42.89
56681;BME280;42558;52.388;13.390;2023-05-18T13:12:50;102211.74;;;15.82;42.69
56681;BME280;42558;52.388;13.390;2023-05-18T13:15:22;102206.59;;;15.93;41.49
56681;BME280;42558;52.388;13.390;2023-05-18T13:18:05;102201.77;;;16.03;42.85
56681;BME280;42558;52.388;13.390;2023-05-18T13:20:58;102201.61;;;15.93;42.03
56681;BME280;42558;52.388;13.390;2023-05-18T13:23:28;102205.88;;;15.93;43.51
56681;BME280;42558;52.388;13.390;2023-05-18T13:25:56;102202.73;;;15.97;42.79
56681;BME280;42558;52.388;13.390;2023-05-18T13:28:26;102197.70;;;16.03;41.00
56681;BME280;42558;52.388;13.390;2023-05-18T13:30:53;102196.39;;;15.66;41.47
56681;BME280;42558;52.388;13.390;2023-05-18T13:33:22;102192.17;;;16.02;40.96